SPZO

Alejandro Velasco Astete International Airport

Cusco, Peru
TAF SPZO 141700Z 1418/1518 36012KT 9999 SCT050 SCT100 TX22/1419Z TN07/1511Z TEMPO 1420/1423 29012KT BECMG 1423/1501 00000KT
Issued Valid From Valid To
Dec-14 @ 17:00 UTC
(5 hours ago)
Dec-14 @ 18:00 UTC
(4 hours ago)
Dec-15 @ 18:00 UTC
(in 20 hours)
Dec-14 @ 18:00 to Dec-14 @ 23:00
TAF SPZO 141700Z 1418/1518 36012KT 9999 SCT050 SCT100 TX22/1419Z TN07/1511Z
Wind Visibility Clouds
360° at 12 knots 10,000+ meters
  • Scattered at 5,000' AGL
  • Scattered at 10,000' AGL
Temporary Dec-14 @ 20:00 to Dec-14 @ 23:00
TEMPO 1420/1423 29012KT
Wind
290° at 12 knots
Becoming Dec-14 @ 23:00 to Dec-15 @ 18:00
BECMG 1423/1501 00000KT
Visibility Clouds
10,000+ meters
  • Scattered at 5,000' AGL
  • Scattered at 10,000' AGL
TAF SPZO 141700Z 1418/1518 36012KT 9999 SCT050 SCT100 TX22/1419Z TN07/1511Z TEMPO 1420/1423 29012KT BECMG 1423/1501 00000KT
Issued Dec-14 @ 17:00 UTC
(5 hours ago)
Valid From Dec-14 @ 18:00 UTC
(4 hours ago)
Valid To Dec-15 @ 18:00 UTC
(in 20 hours)
Dec-14 @ 18:00 - Dec-14 @ 23:00
Wind Visibility
360° at 12 knots 10,000+ meters
Clouds
  • Scattered at 5,000' AGL
  • Scattered at 10,000' AGL
Temporary Dec-14 @ 20:00 - Dec-14 @ 23:00
Wind
290° at 12 knots
Becoming Dec-14 @ 23:00 - Dec-15 @ 18:00
Clouds
  • Scattered at 5,000' AGL
  • Scattered at 10,000' AGL